Sao Bernardo do Campo, Brazil
Current Conditions -  °F | °C
As of 4:00 PM on Wednesday 28 Jan 2015 (Local Time) from SBSP Reporting Station
Few Clouds Few Clouds  
Wind Chill: 84°   Ceiling: Unl
Heat Index: 86°   Visibility: 6mi
Dew Point: 64°   Wind: 10mph
Humidity: 51%   Direction: 330°NNW
Pressure: 30"   Gusts: NA
Location:  23.71°S, 46.54°W
Report Text: SBSP 281800Z 33009KT 9999 FEW037 29/18 Q1016
Loading
Personal Weather Stations






























Interactive Weather Map New forecast layout! Learn more

10-Day Weather Forecast

Advertisements
Track Severe Weather on mobile